Time;durP1;ratioP1;P1;durP2;ratioP2;P2;SDS_P1;SDS_P2;PMS_P1;PMS_P2;Temp;Humidity;BMP_temperature;BMP_pressure;BME280_temperature;BME280_humidity;BME280_pressure;Samples;Min_cycle;Max_cycle;Signal;HPM_P1;HPM_P2
2021/04/27 00:01:15;;;;;;;6.15;4.03;;;;;;;0.85;57.16;99723.99;1720514;82;21272;-71
2021/04/27 00:06:04;;;;;;;8.63;4.08;;;;;;;0.91;57.34;99725.22;1793035;78;22680;-71
2021/04/27 00:08:31;;;;;;;8.80;4.08;;;;;;;0.86;57.29;99727.81;1769717;79;21029;-70
2021/04/27 00:10:59;;;;;;;5.17;4.08;;;;;;;0.87;57.43;99722.27;1764051;80;21691;-71
2021/04/27 00:13:27;;;;;;;6.28;4.25;;;;;;;0.89;57.46;99717.95;1767182;80;21070;-72
2021/04/27 00:15:54;;;;;;;7.10;3.83;;;;;;;0.90;57.48;99718.39;1771261;80;21590;-71
2021/04/27 00:18:21;;;;;;;5.28;4.22;;;;;;;0.90;57.61;99715.81;1764612;80;21032;-71
2021/04/27 00:20:48;;;;;;;6.00;3.52;;;;;;;0.91;57.59;99716.66;1766027;80;21195;-71
2021/04/27 00:23:15;;;;;;;7.22;3.72;;;;;;;0.91;57.69;99713.66;1767067;80;21204;-70
2021/04/27 00:25:42;;;;;;;6.83;3.72;;;;;;;0.91;57.80;99717.51;1767379;80;20997;-71
2021/04/27 00:28:10;;;;;;;5.03;3.12;;;;;;;0.91;57.82;99708.52;1767671;80;25052;-70
2021/04/27 00:30:37;;;;;;;4.95;3.60;;;;;;;0.92;57.84;99715.34;1767717;79;21193;-71
2021/04/27 00:33:04;;;;;;;5.62;3.65;;;;;;;0.91;57.89;99707.23;1766525;80;21567;-70
2021/04/27 00:35:32;;;;;;;5.92;3.92;;;;;;;0.92;57.96;99706.34;1771110;79;21418;-70
2021/04/27 00:38:00;;;;;;;8.05;3.58;;;;;;;0.94;57.99;99711.49;1762524;80;21218;-71
2021/04/27 00:40:27;;;;;;;8.35;3.90;;;;;;;0.95;58.04;99708.05;1768596;80;21064;-71
2021/04/27 00:42:55;;;;;;;6.10;3.65;;;;;;;0.95;58.12;99708.89;1773354;80;21266;-71
2021/04/27 00:45:27;;;;;;;6.10;2.90;;;;;;;0.96;58.14;99708.05;1767701;80;21201;-71
2021/04/27 00:47:55;;;;;;;5.70;3.42;;;;;;;0.95;58.29;99703.75;1769733;80;21200;-73
2021/04/27 00:50:31;;;;;;;;;;;;;;;0.95;58.22;99706.32;1765742;80;21634;-72
2021/04/27 00:52:59;;;;;;;5.30;3.00;;;;;;;0.96;58.42;99702.91;1731427;81;20282;-72
2021/04/27 00:55:28;;;;;;;3.95;2.72;;;;;;;0.97;58.29;99702.03;1720043;82;21156;-72
2021/04/27 00:57:58;;;;;;;6.22;3.58;;;;;;;0.97;58.41;99691.74;1705637;83;21171;-73
2021/04/27 01:00:29;;;;;;;5.85;3.25;;;;;;;0.97;58.43;99698.17;1679587;83;21443;-73
2021/04/27 01:02:57;;;;;;;6.50;3.25;;;;;;;0.98;58.49;99690.89;1714205;83;21236;-73
2021/04/27 01:05:26;;;;;;;;;;;;;;;0.99;58.56;99689.17;1703906;82;21221;-72
2021/04/27 01:08:01;;;;;;;6.00;3.05;;;;;;;0.98;58.70;99690.89;1721271;83;22426;-73
2021/04/27 01:10:45;;;;;;;5.33;2.77;;;;;;;0.98;58.70;99687.45;1695434;83;21210;-72
2021/04/27 01:13:29;;;;;;;4.83;3.00;;;;;;;0.98;58.72;99689.61;1708754;82;21669;-72
2021/04/27 01:15:59;;;;;;;6.10;3.20;;;;;;;0.99;58.73;99683.59;1702768;83;21191;-71
2021/04/27 01:18:27;;;;;;;3.72;2.83;;;;;;;0.99;58.80;99687.45;1702457;82;21135;-71
2021/04/27 01:20:58;;;;;;;4.58;2.50;;;;;;;0.99;58.82;99687.89;1705616;82;21171;-70
2021/04/27 01:23:36;;;;;;;4.22;2.65;;;;;;;0.95;58.89;99690.89;1713016;82;21255;-71
2021/04/27 01:26:36;;;;;;;4.78;3.20;;;;;;;0.94;58.91;99691.77;1715756;82;21389;-71
2021/04/27 01:29:07;;;;;;;3.85;2.75;;;;;;;0.93;59.04;99692.65;1649693;85;21239;-70
2021/04/27 01:31:35;;;;;;;4.05;2.62;;;;;;;0.93;59.06;99690.08;1649376;84;21440;-71
2021/04/27 01:34:24;;;;;;;3.92;2.60;;;;;;;0.94;59.17;99691.77;1631813;85;21246;-71
2021/04/27 01:36:53;;;;;;;4.15;2.60;;;;;;;0.91;59.08;99689.23;1659232;85;21167;-72
2021/04/27 01:39:27;;;;;;;4.42;2.85;;;;;;;0.92;59.15;99690.92;1626559;86;22226;-72
2021/04/27 01:41:56;;;;;;;5.62;2.70;;;;;;;0.92;59.22;99678.07;1634169;86;21174;-72
2021/04/27 01:44:24;;;;;;;3.67;2.62;;;;;;;0.95;59.35;99683.19;1627892;86;22365;-72
2021/04/27 01:46:52;;;;;;;6.50;3.00;;;;;;;0.94;59.36;99684.06;1650516;84;21212;-72
2021/04/27 01:49:19;;;;;;;3.90;2.60;;;;;;;0.96;59.40;99685.34;1671917;84;21155;-72
2021/04/27 01:51:47;;;;;;;6.67;3.90;;;;;;;0.98;59.51;99680.61;1682129;84;21225;-72
2021/04/27 01:54:14;;;;;;;5.78;3.00;;;;;;;0.97;59.57;99684.03;1678654;84;21313;-72
2021/04/27 01:56:41;;;;;;;;;;;;;;;0.99;59.56;99683.59;1651920;85;21204;-71
2021/04/27 01:59:08;;;;;;;6.58;3.00;;;;;;;1.00;59.69;99681.43;1650949;85;20234;-72
2021/04/27 02:01:35;;;;;;;4.90;2.87;;;;;;;1.01;59.69;99672.87;1630086;85;21253;-72
2021/04/27 02:04:03;;;;;;;4.92;2.37;;;;;;;1.02;59.71;99674.56;1643629;85;21327;-72
2021/04/27 02:06:30;;;;;;;6.35;2.90;;;;;;;1.04;59.70;99674.13;1673408;84;24930;-72
2021/04/27 02:09:08;;;;;;;4.70;2.80;;;;;;;1.04;59.75;99671.99;1679179;84;21580;-72
2021/04/27 02:11:39;;;;;;;3.47;2.92;;;;;;;0.99;59.71;99675.88;1683993;84;21124;-72
2021/04/27 02:14:09;;;;;;;4.55;2.20;;;;;;;0.96;59.79;99664.34;1662931;84;21009;-72
2021/04/27 02:16:52;;;;;;;2.98;2.25;;;;;;;0.96;59.92;99661.77;1676928;84;21216;-72
2021/04/27 02:19:47;;;;;;;4.30;2.15;;;;;;;0.94;59.96;99666.06;1678965;84;21637;-72
2021/04/27 02:22:14;;;;;;;2.70;1.87;;;;;;;0.93;59.99;99673.37;1672822;84;21191;-72
2021/04/27 02:24:42;;;;;;;4.28;2.55;;;;;;;0.93;60.01;99664.38;1669382;84;21178;-72
2021/04/27 02:27:12;;;;;;;3.75;2.10;;;;;;;0.95;60.08;99665.19;1670695;84;21169;-73
2021/04/27 02:29:40;;;;;;;4.12;2.30;;;;;;;0.95;60.10;99660.05;1684557;84;21267;-71
2021/04/27 02:32:07;;;;;;;6.35;2.27;;;;;;;0.94;60.18;99659.64;1688608;84;21069;-71
2021/04/27 02:34:35;;;;;;;2.92;2.08;;;;;;;0.93;60.24;99657.95;1667483;84;21084;-71
2021/04/27 02:37:02;;;;;;;;;;;;;;;0.91;60.19;99658.38;1667035;84;21220;-71
2021/04/27 02:39:29;;;;;;;2.80;2.02;;;;;;;0.91;60.39;99659.67;1665932;84;20252;-71
2021/04/27 02:41:56;;;;;;;4.97;2.87;;;;;;;0.89;60.42;99662.67;1667917;84;21213;-71
2021/04/27 02:44:23;;;;;;;4.60;2.30;;;;;;;0.88;60.39;99655.84;1671697;84;23696;-71
2021/04/27 02:46:50;;;;;;;4.37;2.22;;;;;;;0.86;60.46;99662.70;1678687;84;21238;-71
2021/04/27 02:49:17;;;;;;;4.12;2.42;;;;;;;0.83;60.46;99657.59;1690961;84;21620;-71
2021/04/27 02:51:44;;;;;;;3.98;2.60;;;;;;;0.82;60.57;99658.47;1682048;84;21281;-71
2021/04/27 02:54:11;;;;;;;3.75;2.55;;;;;;;0.82;60.59;99658.47;1686477;84;21417;-71
2021/04/27 02:56:38;;;;;;;3.08;2.10;;;;;;;0.81;60.65;99656.75;1684828;84;21207;-71
2021/04/27 02:59:06;;;;;;;4.45;2.72;;;;;;;0.80;60.68;99664.05;1684244;84;21221;-71
2021/04/27 03:01:35;;;;;;;4.72;2.42;;;;;;;0.82;60.69;99664.90;1681243;84;21677;-71
2021/04/27 03:04:04;;;;;;;3.40;2.05;;;;;;;0.84;60.75;99664.43;1686586;84;21632;-71
2021/04/27 03:06:31;;;;;;;3.47;2.35;;;;;;;0.86;60.87;99663.99;1684804;84;21430;-71
2021/04/27 03:08:59;;;;;;;5.12;2.02;;;;;;;0.87;60.76;99664.44;1680552;84;21254;-71
2021/04/27 03:11:27;;;;;;;4.00;2.20;;;;;;;0.89;60.85;99665.25;1681812;84;21601;-72
2021/04/27 03:13:54;;;;;;;2.72;2.15;;;;;;;0.92;60.85;99665.22;1655486;85;21182;-71
2021/04/27 03:16:23;;;;;;;5.15;2.98;;;;;;;0.94;60.88;99657.51;1628653;87;21630;-71
2021/04/27 03:18:51;;;;;;;5.55;2.30;;;;;;;0.93;60.87;99661.80;1672572;85;21680;-71
2021/04/27 03:21:18;;;;;;;3.70;2.17;;;;;;;0.95;60.93;99659.20;1646053;85;21199;-70
2021/04/27 03:23:45;;;;;;;4.15;2.60;;;;;;;0.95;60.97;99651.05;1684805;84;21198;-70
2021/04/27 03:26:13;;;;;;;5.72;2.55;;;;;;;0.97;61.01;99654.46;1687874;84;21032;-71
2021/04/27 03:28:43;;;;;;;3.98;2.40;;;;;;;0.97;61.07;99655.75;1655235;85;21701;-70
2021/04/27 03:31:10;;;;;;;4.62;1.85;;;;;;;1.00;61.09;99660.02;1660786;85;21224;-72
2021/04/27 03:33:37;;;;;;;11.63;2.15;;;;;;;0.99;61.12;99658.32;1655706;85;21282;-72
2021/04/27 03:36:05;;;;;;;9.38;2.60;;;;;;;0.98;61.08;99657.47;1687400;84;21056;-72
2021/04/27 03:38:32;;;;;;;7.47;2.67;;;;;;;1.01;61.15;99660.02;1683514;84;21163;-72
2021/04/27 03:40:59;;;;;;;5.42;2.15;;;;;;;1.02;61.28;99653.99;1658545;85;21138;-72
2021/04/27 03:43:27;;;;;;;4.62;2.72;;;;;;;1.04;61.21;99656.13;1690550;83;21672;-72
2021/04/27 03:45:55;;;;;;;11.12;2.33;;;;;;;1.05;61.23;99656.53;1652071;85;21251;-72
2021/04/27 03:48:22;;;;;;;4.03;2.17;;;;;;;1.10;61.27;99657.78;1660312;85;21044;-72
2021/04/27 03:50:50;;;;;;;2.83;2.05;;;;;;;1.11;61.27;99659.03;1682818;83;21696;-71
2021/04/27 03:53:16;;;;;;;4.55;2.15;;;;;;;1.15;61.39;99662.86;1683178;83;22241;-71
2021/04/27 03:55:44;;;;;;;4.95;2.30;;;;;;;1.14;61.27;99670.17;1688178;83;21277;-71
2021/04/27 03:58:11;;;;;;;4.75;2.40;;;;;;;1.12;61.31;99670.17;1658223;85;21203;-72
2021/04/27 04:00:38;;;;;;;5.15;2.40;;;;;;;1.15;61.42;99669.29;1685379;83;21186;-72
2021/04/27 04:03:05;;;;;;;14.65;2.40;;;;;;;1.17;61.48;99663.70;1658041;85;21172;-72
2021/04/27 04:05:32;;;;;;;3.83;2.02;;;;;;;1.20;61.61;99668.38;1669254;85;21182;-71
2021/04/27 04:07:59;;;;;;;3.98;2.25;;;;;;;1.21;61.56;99662.83;1687513;84;22134;-72
2021/04/27 04:10:26;;;;;;;4.72;2.15;;;;;;;1.26;61.66;99670.91;1661690;85;21065;-72
2021/04/27 04:12:54;;;;;;;5.33;2.27;;;;;;;1.30;61.67;99669.15;1654828;85;21683;-72
2021/04/27 04:15:21;;;;;;;4.42;2.15;;;;;;;1.34;61.73;99666.95;1682628;84;21155;-73
2021/04/27 04:17:49;;;;;;;3.90;2.58;;;;;;;1.38;61.79;99666.50;1689204;84;21207;-73
2021/04/27 04:20:22;;;;;;;4.37;2.40;;;;;;;1.41;61.82;99669.04;1686388;83;21212;-72
2021/04/27 04:22:50;;;;;;;5.37;2.33;;;;;;;1.43;61.77;99668.16;1680122;84;21227;-72
2021/04/27 04:25:18;;;;;;;4.40;2.20;;;;;;;1.48;61.83;99674.08;1652744;85;21198;-72
2021/04/27 04:27:46;;;;;;;6.12;2.42;;;;;;;1.54;61.86;99674.03;1692292;84;21208;-72
2021/04/27 04:30:22;;;;;;;12.05;2.98;;;;;;;1.61;61.88;99681.69;1652677;85;21189;-72
2021/04/27 04:32:50;;;;;;;11.63;2.50;;;;;;;1.70;62.01;99678.99;1682984;84;22258;-72
2021/04/27 04:35:22;;;;;;;9.43;2.55;;;;;;;1.78;61.89;99677.18;1692519;84;21742;-72
2021/04/27 04:37:49;;;;;;;15.75;2.70;;;;;;;1.83;61.93;99681.84;1663597;85;21213;-72
2021/04/27 04:40:17;;;;;;;11.08;2.27;;;;;;;1.88;62.00;99668.48;1667871;85;21186;-72
2021/04/27 04:42:44;;;;;;;8.55;2.67;;;;;;;1.95;61.95;99670.53;1671542;85;21225;-72
2021/04/27 04:45:14;;;;;;;9.78;2.40;;;;;;;2.00;62.02;99671.33;1686728;84;21287;-71
2021/04/27 04:47:43;;;;;;;24.70;3.15;;;;;;;2.07;62.07;99670.36;1685205;84;21065;-72
2021/04/27 04:50:14;;;;;;;12.63;2.90;;;;;;;2.19;62.13;99671.94;1688396;84;21245;-71
2021/04/27 04:52:42;;;;;;;4.62;2.20;;;;;;;2.28;62.04;99665.36;1658616;85;21178;-72
2021/04/27 04:55:11;;;;;;;32.93;8.43;;;;;;;2.33;62.06;99663.57;1686924;84;21190;-72
2021/04/27 04:57:39;;;;;;;25.70;11.57;;;;;;;2.39;61.99;99666.05;1661988;85;21293;-73
2021/04/27 05:00:07;;;;;;;;;;;;;;;2.44;62.05;99665.55;1689788;83;21219;-72
2021/04/27 05:02:34;;;;;;;40.05;12.05;;;;;;;2.56;62.21;99659.80;1689126;84;20121;-72
2021/04/27 05:05:01;;;;;;;26.80;12.33;;;;;;;2.66;62.13;99671.64;1685174;83;21185;-72
2021/04/27 05:07:28;;;;;;;35.13;9.15;;;;;;;2.79;62.17;99677.46;1652408;85;21157;-72
2021/04/27 05:09:55;;;;;;;19.98;5.67;;;;;;;2.91;62.20;99662.66;1685241;84;21347;-72
2021/04/27 05:12:22;;;;;;;21.07;5.95;;;;;;;3.06;62.16;99663.27;1689856;84;21091;-72
2021/04/27 05:14:49;;;;;;;14.68;3.75;;;;;;;3.23;62.20;99661.22;1687930;84;21640;-72
2021/04/27 05:17:18;;;;;;;23.35;3.83;;;;;;;3.51;62.36;99660.26;1687909;83;21160;-72
2021/04/27 05:19:45;;;;;;;12.93;3.02;;;;;;;3.92;62.30;99661.58;1648489;85;21199;-70
2021/04/27 05:22:13;;;;;;;8.45;2.65;;;;;;;4.40;62.17;99660.12;1676061;84;22105;-72
2021/04/27 05:24:42;;;;;;;16.93;3.75;;;;;;;4.98;62.34;99662.56;1682011;84;21636;-73
2021/04/27 05:27:11;;;;;;;12.60;3.22;;;;;;;5.56;61.91;99657.14;1684882;84;21822;-73
2021/04/27 05:29:38;;;;;;;4.17;2.22;;;;;;;5.89;61.65;99663.56;1682213;84;21210;-73
2021/04/27 05:32:09;;;;;;;5.78;2.02;;;;;;;5.89;60.77;99660.97;1675136;84;21202;-73
2021/04/27 05:34:37;;;;;;;8.30;2.37;;;;;;;5.60;60.82;99674.31;1681132;84;21392;-73
2021/04/27 05:37:04;;;;;;;4.97;2.00;;;;;;;5.23;60.81;99669.70;1685492;84;21260;-70
2021/04/27 05:39:31;;;;;;;11.03;2.30;;;;;;;4.86;60.67;99671.94;1656969;85;21266;-73
2021/04/27 05:41:59;;;;;;;7.45;2.45;;;;;;;4.65;61.29;99675.46;1679121;84;21202;-73
2021/04/27 05:44:26;;;;;;;;;;;;;;;4.58;61.30;99673.05;1677956;84;21259;-74
2021/04/27 05:46:53;;;;;;;8.35;2.60;;;;;;;4.45;61.30;99668.59;1676464;84;21173;-70
2021/04/27 05:49:20;;;;;;;12.80;2.60;;;;;;;4.28;61.52;99668.13;1676860;84;21681;-74
2021/04/27 05:51:47;;;;;;;10.20;2.58;;;;;;;4.45;61.94;99662.12;1684978;84;21166;-73
2021/04/27 05:54:15;;;;;;;12.13;2.35;;;;;;;4.60;61.78;99669.99;1680156;84;21748;-73
2021/04/27 05:56:42;;;;;;;8.00;2.80;;;;;;;4.54;61.53;99669.70;1673681;84;21208;-73
2021/04/27 05:59:10;;;;;;;16.35;2.72;;;;;;;4.58;61.89;99672.60;1677031;84;21226;-74
2021/04/27 06:01:38;;;;;;;3.70;2.25;;;;;;;4.67;61.72;99673.66;1680194;84;21268;-72
2021/04/27 06:04:06;;;;;;;10.45;2.40;;;;;;;4.80;62.03;99670.80;1682662;84;21681;-72
2021/04/27 06:06:35;;;;;;;4.60;2.35;;;;;;;4.99;62.14;99681.10;1681879;84;21676;-70
2021/04/27 06:09:05;;;;;;;4.40;2.47;;;;;;;4.86;61.72;99679.25;1682861;84;21621;-73
2021/04/27 06:11:32;;;;;;;4.95;2.60;;;;;;;4.92;61.94;99678.25;1657996;85;21266;-73
2021/04/27 06:13:59;;;;;;;4.60;2.30;;;;;;;4.97;61.77;99678.98;1678992;82;21700;-73
2021/04/27 06:16:27;;;;;;;4.78;2.30;;;;;;;4.83;61.99;99686.24;1675422;84;21183;-72
2021/04/27 06:18:55;;;;;;;10.68;2.65;;;;;;;4.83;62.10;99683.66;1685754;84;21216;-73
2021/04/27 06:21:24;;;;;;;6.20;2.35;;;;;;;4.92;62.25;99682.13;1683841;84;21668;-72
2021/04/27 06:23:52;;;;;;;5.15;2.12;;;;;;;5.03;62.50;99684.00;1652275;85;21238;-73
2021/04/27 06:26:21;;;;;;;5.60;3.00;;;;;;;5.08;62.01;99679.56;1644309;85;21290;-73
2021/04/27 06:28:50;;;;;;;4.90;2.85;;;;;;;5.35;62.23;99684.94;1648059;85;21264;-73
2021/04/27 06:31:21;;;;;;;7.10;4.45;;;;;;;5.70;61.89;99681.81;1675985;84;21153;-73
2021/04/27 06:33:48;;;;;;;8.13;3.80;;;;;;;5.90;61.85;99683.38;1672044;84;21752;-73
2021/04/27 06:36:15;;;;;;;8.73;4.92;;;;;;;6.11;61.62;99685.00;1651775;85;21692;-73
2021/04/27 06:38:43;;;;;;;8.15;4.70;;;;;;;6.26;61.69;99689.27;1677132;84;21198;-73
2021/04/27 06:41:11;;;;;;;8.38;4.12;;;;;;;6.59;61.30;99688.29;1651508;85;21274;-73
2021/04/27 06:43:38;;;;;;;;;;;;;;;6.68;61.31;99690.59;1677888;84;21616;-73
2021/04/27 06:46:07;;;;;;;10.63;4.08;;;;;;;7.15;62.09;99695.98;1672222;84;20571;-73
2021/04/27 06:48:34;;;;;;;5.40;2.80;;;;;;;8.04;62.09;99687.63;1674701;84;21327;-73
2021/04/27 06:51:04;;;;;;;2.33;1.90;;;;;;;9.07;61.03;99680.98;1650078;85;21216;-73
2021/04/27 06:53:32;;;;;;;6.75;2.87;;;;;;;9.52;60.46;99674.72;1653289;85;21176;-74
2021/04/27 06:55:59;;;;;;;5.20;2.62;;;;;;;9.45;59.09;99681.97;1645852;85;21669;-74
2021/04/27 06:58:27;;;;;;;3.75;2.25;;;;;;;9.03;58.99;99688.08;1669994;84;21159;-74
2021/04/27 07:00:54;;;;;;;;;;;;;;;8.80;59.54;99682.98;1651746;86;21720;-74
2021/04/27 07:03:21;;;;;;;4.97;2.50;;;;;;;8.64;57.78;99681.44;1651464;85;20333;-73
2021/04/27 07:05:48;;;;;;;7.10;3.30;;;;;;;8.52;59.38;99686.69;1666870;84;21633;-73
2021/04/27 07:08:15;;;;;;;7.17;2.90;;;;;;;8.54;59.14;99687.45;1670498;84;21218;-74
2021/04/27 07:10:46;;;;;;;8.13;3.08;;;;;;;8.51;59.48;99688.87;1668682;85;21178;-73
2021/04/27 07:14:24;;;;;;;5.20;2.42;;;;;;;8.49;59.78;99686.81;1827421;76;22815;-73
2021/04/27 07:16:51;;;;;;;2.98;2.40;;;;;;;8.58;59.72;99683.83;1798978;78;21016;-72
2021/04/27 07:19:17;;;;;;;6.78;2.67;;;;;;;8.38;57.23;99683.28;1800084;77;22356;-73
2021/04/27 07:21:44;;;;;;;7.03;2.58;;;;;;;7.95;57.44;99687.95;1794683;78;21112;-71
2021/04/27 07:24:12;;;;;;;6.28;2.85;;;;;;;7.85;58.64;99677.90;1800974;77;21641;-71
2021/04/27 07:26:41;;;;;;;6.17;2.60;;;;;;;7.85;58.64;99677.90;1805242;78;21060;-72
2021/04/27 07:29:09;;;;;;;6.55;2.83;;;;;;;8.21;59.85;99679.19;1799872;77;21056;-74
2021/04/27 07:31:39;;;;;;;5.40;2.90;;;;;;;8.87;59.91;99680.50;1798297;77;21195;-74
2021/04/27 07:34:07;;;;;;;5.10;2.55;;;;;;;9.29;58.83;99683.53;1802725;78;21063;-74
2021/04/27 07:36:35;;;;;;;4.30;2.62;;;;;;;9.45;59.09;99685.88;1771143;78;21066;-74
2021/04/27 07:39:06;;;;;;;8.68;3.92;;;;;;;9.08;57.28;99685.30;1803070;77;20961;-74
2021/04/27 07:41:33;;;;;;;6.17;3.62;;;;;;;8.28;56.94;99689.28;1804038;78;21171;-74
2021/04/27 07:44:00;;;;;;;;;;;;;;;7.93;58.31;99685.88;1801513;78;22169;-72
2021/04/27 07:46:27;;;;;;;;;;;;;;;7.58;57.32;99697.08;1813931;78;20130;-72
2021/04/27 07:48:54;;;;;;;6.20;3.00;;;;;;;7.05;57.10;99700.61;1768885;79;20212;-71
2021/04/27 07:51:22;;;;;;;4.47;2.77;;;;;;;6.56;57.23;99703.95;1764050;80;21579;-72
2021/04/27 07:53:48;;;;;;;;;;;;;;;6.35;57.79;99705.44;1733648;81;21265;-72
2021/04/27 07:56:17;;;;;;;5.40;2.85;;;;;;;6.34;57.84;99705.05;1760337;80;21421;-70
2021/04/27 07:58:44;;;;;;;6.67;2.67;;;;;;;6.15;58.08;99706.05;1744941;80;21098;-73
2021/04/27 08:01:11;;;;;;;6.28;2.70;;;;;;;5.98;57.68;99713.86;1742074;81;21070;-75
2021/04/27 08:03:38;;;;;;;4.53;2.67;;;;;;;5.77;57.91;99714.41;1749298;81;21022;-74
2021/04/27 08:06:06;;;;;;;4.45;2.22;;;;;;;5.91;58.51;99711.02;1767400;79;21179;-73
2021/04/27 08:08:33;;;;;;;5.92;2.30;;;;;;;6.13;58.38;99709.96;1751275;80;21191;-73
2021/04/27 08:11:02;;;;;;;3.65;2.45;;;;;;;6.39;58.28;99715.69;1764489;79;21101;-73
2021/04/27 08:13:29;;;;;;;4.30;2.00;;;;;;;6.77;58.14;99708.45;1733184;80;21246;-74
2021/04/27 08:15:56;;;;;;;3.12;2.10;;;;;;;7.10;58.42;99706.96;1767597;80;21841;-74
2021/04/27 08:18:23;;;;;;;4.87;2.10;;;;;;;7.47;58.15;99707.00;1751030;80;21163;-74
2021/04/27 08:20:51;;;;;;;4.85;2.50;;;;;;;7.63;57.78;99709.01;1748902;81;21210;-74
2021/04/27 08:23:18;;;;;;;4.62;2.60;;;;;;;7.92;57.37;99704.97;1762269;80;21112;-74
2021/04/27 08:25:45;;;;;;;5.10;2.50;;;;;;;7.92;57.37;99704.97;1733736;80;21128;-73
2021/04/27 08:28:18;;;;;;;3.12;1.90;;;;;;;7.64;57.29;99704.66;1762168;80;21188;-74
2021/04/27 08:30:45;;;;;;;2.52;1.42;;;;;;;7.58;56.84;99711.37;1762979;79;21637;-74
2021/04/27 08:33:13;;;;;;;2.95;1.62;;;;;;;7.11;55.86;99710.82;1760037;80;21211;-74
2021/04/27 08:35:40;;;;;;;7.97;1.87;;;;;;;7.01;57.09;99717.66;1753802;80;21081;-74
2021/04/27 08:38:07;;;;;;;;;;;;;;;7.11;57.25;99707.34;1764572;79;21216;-73
2021/04/27 08:40:34;;;;;;;3.50;1.87;;;;;;;7.21;57.03;99707.45;1760517;79;20599;-73
2021/04/27 08:43:02;;;;;;;2.60;1.40;;;;;;;7.12;57.05;99711.66;1758846;79;21164;-74
2021/04/27 08:45:29;;;;;;;4.47;2.17;;;;;;;6.98;56.34;99711.27;1758526;79;21377;-74
2021/04/27 08:47:56;;;;;;;3.98;2.02;;;;;;;7.05;57.38;99716.64;1759895;79;21615;-73
2021/04/27 08:50:23;;;;;;;2.47;1.50;;;;;;;7.29;56.91;99717.13;1758240;79;21204;-73
2021/04/27 08:52:50;;;;;;;3.58;1.17;;;;;;;7.42;57.02;99714.10;1759172;80;21641;-74
2021/04/27 08:55:18;;;;;;;2.02;1.25;;;;;;;7.64;56.35;99707.25;1753937;79;21260;-73
2021/04/27 08:57:45;;;;;;;3.45;1.05;;;;;;;7.84;56.67;99709.13;1756358;79;21416;-74
2021/04/27 09:00:18;;;;;;;4.10;1.62;;;;;;;8.35;56.90;99705.98;1733724;81;21065;-74
2021/04/27 09:02:58;;;;;;;2.90;1.60;;;;;;;8.46;56.53;99699.94;1758402;80;21046;-74
2021/04/27 09:05:28;;;;;;;3.67;1.35;;;;;;;8.35;55.79;99699.48;1742077;80;21098;-74
2021/04/27 09:07:58;;;;;;;2.60;1.25;;;;;;;8.46;56.48;99702.55;1749020;80;21207;-74
2021/04/27 09:10:33;;;;;;;1.75;1.27;;;;;;;8.57;55.81;99699.50;1763826;80;21415;-73
2021/04/27 09:13:10;;;;;;;1.98;1.40;;;;;;;8.87;56.74;99704.78;1736397;80;21127;-74
2021/04/27 09:15:47;;;;;;;3.17;1.90;;;;;;;9.32;56.54;99700.34;1731289;81;21207;-74
2021/04/27 09:18:34;;;;;;;4.17;1.70;;;;;;;9.70;56.23;99704.37;1732476;81;21661;-74
2021/04/27 09:21:08;;;;;;;4.58;1.80;;;;;;;9.98;56.31;99698.30;1759353;79;21207;-74
2021/04/27 09:23:40;;;;;;;1.85;1.30;;;;;;;10.17;55.28;99706.61;1762062;79;21209;-75
2021/04/27 09:26:18;;;;;;;1.70;1.02;;;;;;;9.78;53.87;99697.05;1749687;80;21198;-75
2021/04/27 09:28:50;;;;;;;1.50;1.00;;;;;;;9.35;54.66;99698.90;1753600;80;21062;-69
2021/04/27 09:31:37;;;;;;;4.92;1.62;;;;;;;9.48;55.22;99701.38;1742025;80;21173;-74
2021/04/27 09:34:28;;;;;;;;;;;;;;;9.44;52.63;99694.63;1748591;80;21182;-74
2021/04/27 09:37:02;;;;;;;1.57;0.80;;;;;;;8.81;53.31;99697.22;1741469;80;21367;-75
2021/04/27 09:39:40;;;;;;;9.08;1.57;;;;;;;8.73;54.36;99700.12;1761141;80;21459;-73
2021/04/27 09:42:21;;;;;;;2.40;0.85;;;;;;;8.85;54.70;99696.64;1739807;81;21244;-72
2021/04/27 09:44:51;;;;;;;3.62;1.60;;;;;;;8.88;54.45;99701.75;1740351;81;20983;-75
2021/04/27 09:47:31;;;;;;;4.78;1.10;;;;;;;9.00;54.88;99698.63;1747121;81;21004;-71
2021/04/27 09:50:06;;;;;;;5.50;2.08;;;;;;;9.07;54.36;99705.27;1731480;81;21353;-72
2021/04/27 09:52:44;;;;;;;6.33;1.52;;;;;;;9.30;54.86;99704.76;1748400;81;21030;-75
2021/04/27 09:55:20;;;;;;;2.98;0.70;;;;;;;9.47;54.31;99707.52;1766137;79;21166;-75
2021/04/27 09:57:54;;;;;;;3.10;1.00;;;;;;;9.16;52.47;99707.51;1733087;81;21033;-74
2021/04/27 10:00:35;;;;;;;1.15;0.70;;;;;;;8.69;52.17;99705.08;1743417;80;21832;-74
2021/04/27 10:03:07;;;;;;;4.58;1.20;;;;;;;8.51;53.28;99703.19;1731235;81;22165;-74
2021/04/27 10:05:36;;;;;;;4.17;1.32;;;;;;;8.49;53.26;99706.33;1759971;79;21285;-70
2021/04/27 10:08:04;;;;;;;4.78;1.07;;;;;;;8.44;52.71;99705.65;1728890;81;21080;-72
2021/04/27 10:10:34;;;;;;;2.27;1.22;;;;;;;8.38;53.01;99708.46;1763270;80;21224;-72
2021/04/27 10:13:05;;;;;;;4.10;1.30;;;;;;;8.64;53.69;99703.10;1769681;80;21792;-73
2021/04/27 10:15:32;;;;;;;2.17;1.05;;;;;;;8.69;51.82;99705.08;1750919;80;21210;-74
2021/04/27 10:18:02;;;;;;;1.92;1.05;;;;;;;8.54;51.26;99705.66;1753474;81;21226;-73
2021/04/27 10:20:30;;;;;;;3.22;1.30;;;;;;;8.23;51.75;99709.45;1748042;81;21058;-72
2021/04/27 10:22:59;;;;;;;2.08;1.15;;;;;;;8.25;52.57;99706.31;1749884;81;21231;-74
2021/04/27 10:25:35;;;;;;;2.70;1.00;;;;;;;8.51;52.94;99707.09;1752909;81;21200;-73
2021/04/27 10:28:09;;;;;;;1.80;1.00;;;;;;;8.77;52.70;99696.13;1754058;81;22124;-74
2021/04/27 10:30:44;;;;;;;1.60;1.10;;;;;;;8.85;51.32;99696.64;1753334;80;21110;-73
2021/04/27 10:33:23;;;;;;;5.28;1.27;;;;;;;8.66;50.62;99699.16;1751160;80;21201;-75
2021/04/27 10:36:10;;;;;;;3.67;1.70;;;;;;;8.43;50.69;99702.63;1750293;81;21204;-75
2021/04/27 10:38:52;;;;;;;2.72;1.27;;;;;;;8.38;51.46;99701.50;1752663;80;21279;-74
2021/04/27 10:41:25;;;;;;;1.70;1.30;;;;;;;8.38;51.44;99700.66;1751917;80;21207;-75
2021/04/27 10:43:58;;;;;;;3.40;1.30;;;;;;;8.43;51.22;99693.09;1751949;81;21746;-75
2021/04/27 10:46:35;;;;;;;2.40;1.80;;;;;;;8.43;51.34;99701.33;1754777;80;21039;-75
2021/04/27 10:49:23;;;;;;;5.12;1.72;;;;;;;8.52;51.39;99693.19;1747143;81;21028;-75
2021/04/27 10:51:52;;;;;;;2.83;1.42;;;;;;;8.67;51.05;99709.48;1723654;81;21213;-73
2021/04/27 10:54:34;;;;;;;2.95;1.20;;;;;;;8.60;51.09;99704.15;1752155;80;21209;-73
2021/04/27 10:57:10;;;;;;;1.85;0.90;;;;;;;8.66;51.61;99700.00;1749863;81;21182;-72
2021/04/27 10:59:57;;;;;;;1.62;1.20;;;;;;;8.81;51.70;99696.38;1749216;80;21090;-74
2021/04/27 11:02:30;;;;;;;7.15;2.05;;;;;;;8.99;51.23;99689.13;1757341;80;21176;-69
2021/04/27 11:05:20;;;;;;;1.45;1.30;;;;;;;9.04;51.24;99694.13;1744518;81;21225;-73
2021/04/27 11:07:47;;;;;;;3.58;1.32;;;;;;;9.02;50.17;99692.91;1749302;80;21210;-74
2021/04/27 11:10:22;;;;;;;3.67;1.30;;;;;;;8.65;50.35;99691.77;1753024;81;21121;-73
2021/04/27 11:13:00;;;;;;;8.35;1.62;;;;;;;8.85;51.51;99683.62;1718849;80;21259;-73
2021/04/27 11:15:32;;;;;;;3.45;1.12;;;;;;;9.14;51.34;99683.27;1756336;79;21124;-73
2021/04/27 11:18:18;;;;;;;3.27;1.37;;;;;;;9.31;51.13;99681.72;1767373;80;21124;-74
2021/04/27 11:21:10;;;;;;;6.47;1.33;;;;;;;9.24;50.71;99685.48;1734294;81;22080;-73
2021/04/27 11:26:37;;;;;;;3.83;1.10;;;;;;;9.55;51.31;99675.45;1801003;77;22758;-74
2021/04/27 11:29:16;;;;;;;1.32;0.82;;;;;;;9.82;51.77;99674.66;1773182;80;21056;-73
2021/04/27 11:32:12;;;;;;;1.67;1.10;;;;;;;10.06;50.80;99674.02;1773017;78;22374;-73
2021/04/27 11:34:58;;;;;;;2.42;1.02;;;;;;;9.78;49.94;99674.89;1692877;83;21288;-71
2021/04/27 11:37:38;;;;;;;3.05;1.57;;;;;;;9.42;49.98;99676.89;1704456;83;21016;-77
2021/04/27 11:40:36;;;;;;;3.30;0.80;;;;;;;9.46;50.08;99675.83;1701299;81;21179;-75
2021/04/27 11:43:12;;;;;;;3.70;1.20;;;;;;;9.45;50.28;99675.45;1698947;82;21667;-75
2021/04/27 11:45:49;;;;;;;2.20;0.93;;;;;;;9.53;50.18;99679.88;1702214;83;22166;-76
2021/04/27 11:48:23;;;;;;;2.08;1.00;;;;;;;9.25;47.87;99675.47;1707530;83;21107;-75
2021/04/27 11:50:51;;;;;;;5.87;1.10;;;;;;;9.17;49.82;99684.44;1713774;81;21192;-75
2021/04/27 11:53:21;;;;;;;28.38;2.60;;;;;;;9.16;49.16;99676.25;1707442;83;21013;-75
2021/04/27 11:55:52;;;;;;;1.50;1.30;;;;;;;9.13;49.39;99680.29;1708172;81;21207;-76
2021/04/27 11:58:24;;;;;;;2.15;1.00;;;;;;;9.11;49.79;99679.50;1708661;82;21271;-76
2021/04/27 12:00:57;;;;;;;2.67;1.25;;;;;;;9.23;50.03;99675.98;1712355;82;21293;-76
2021/04/27 12:03:29;;;;;;;1.75;1.00;;;;;;;9.47;50.19;99674.94;1684346;82;21186;-76
2021/04/27 12:08:54;;;;;;;4.55;1.12;;;;;;;9.98;50.03;99668.31;1775682;77;22790;-74